sensor_id;sensor_type;location;lat;lon;timestamp;P1;durP1;ratioP1;P2;durP2;ratioP2
65751;SDS011;52486;51.098;13.770;2022-11-14T06:39:24;10.40;;;3.40;;
65751;SDS011;52486;51.098;13.770;2022-11-14T06:41:49;11.15;;;6.57;;
65751;SDS011;52486;51.098;13.770;2022-11-14T06:44:15;13.25;;;8.23;;
65751;SDS011;52486;51.098;13.770;2022-11-14T06:46:41;10.50;;;6.88;;
65751;SDS011;52486;51.098;13.770;2022-11-14T06:49:07;11.43;;;7.97;;
65751;SDS011;52486;51.098;13.770;2022-11-14T06:51:33;14.63;;;7.20;;
65751;SDS011;52486;51.098;13.770;2022-11-14T06:53:59;12.13;;;6.68;;
65751;SDS011;52486;51.098;13.770;2022-11-14T06:56:24;10.30;;;6.63;;
65751;SDS011;52486;51.098;13.770;2022-11-14T06:58:50;12.93;;;6.30;;
65751;SDS011;52486;51.098;13.770;2022-11-14T07:01:19;10.25;;;5.72;;
65751;SDS011;52486;51.098;13.770;2022-11-14T07:03:47;7.45;;;5.85;;
65751;SDS011;52486;51.098;13.770;2022-11-14T07:06:14;8.50;;;5.45;;
65751;SDS011;52486;51.098;13.770;2022-11-14T07:08:41;7.38;;;5.38;;
65751;SDS011;52486;51.098;13.770;2022-11-14T07:11:11;11.93;;;6.25;;
65751;SDS011;52486;51.098;13.770;2022-11-14T07:13:50;12.73;;;5.80;;
65751;SDS011;52486;51.098;13.770;2022-11-14T07:16:23;8.25;;;5.32;;
65751;SDS011;52486;51.098;13.770;2022-11-14T07:18:53;8.32;;;4.95;;
65751;SDS011;52486;51.098;13.770;2022-11-14T07:21:20;9.30;;;5.20;;
65751;SDS011;52486;51.098;13.770;2022-11-14T07:23:46;5.22;;;4.72;;
65751;SDS011;52486;51.098;13.770;2022-11-14T07:26:11;7.95;;;4.85;;
65751;SDS011;52486;51.098;13.770;2022-11-14T07:28:41;8.23;;;4.68;;
65751;SDS011;52486;51.098;13.770;2022-11-14T07:31:09;6.10;;;4.68;;
65751;SDS011;52486;51.098;13.770;2022-11-14T07:33:37;7.97;;;4.93;;
65751;SDS011;52486;51.098;13.770;2022-11-14T07:36:03;6.47;;;4.90;;
65751;SDS011;52486;51.098;13.770;2022-11-14T07:38:29;9.30;;;4.75;;
65751;SDS011;52486;51.098;13.770;2022-11-14T07:41:00;12.68;;;4.63;;
65751;SDS011;52486;51.098;13.770;2022-11-14T07:43:27;6.90;;;4.60;;
65751;SDS011;52486;51.098;13.770;2022-11-14T07:45:57;5.75;;;4.80;;
65751;SDS011;52486;51.098;13.770;2022-11-14T07:48:24;7.25;;;4.18;;
65751;SDS011;52486;51.098;13.770;2022-11-14T07:50:50;7.53;;;4.30;;
65751;SDS011;52486;51.098;13.770;2022-11-14T07:53:15;5.80;;;4.35;;
65751;SDS011;52486;51.098;13.770;2022-11-14T07:55:42;4.70;;;4.20;;
65751;SDS011;52486;51.098;13.770;2022-11-14T07:58:08;9.40;;;4.25;;
65751;SDS011;52486;51.098;13.770;2022-11-14T08:00:34;10.85;;;4.82;;
65751;SDS011;52486;51.098;13.770;2022-11-14T08:02:59;5.78;;;4.25;;
65751;SDS011;52486;51.098;13.770;2022-11-14T08:05:25;6.25;;;4.70;;
65751;SDS011;52486;51.098;13.770;2022-11-14T08:07:51;5.45;;;4.85;;
65751;SDS011;52486;51.098;13.770;2022-11-14T08:10:19;6.07;;;4.70;;
65751;SDS011;52486;51.098;13.770;2022-11-14T08:12:46;7.75;;;4.70;;
65751;SDS011;52486;51.098;13.770;2022-11-14T08:15:12;6.97;;;4.35;;
65751;SDS011;52486;51.098;13.770;2022-11-14T08:17:38;7.40;;;4.10;;
65751;SDS011;52486;51.098;13.770;2022-11-14T08:20:04;7.20;;;4.70;;
65751;SDS011;52486;51.098;13.770;2022-11-14T08:22:32;11.82;;;4.85;;
65751;SDS011;52486;51.098;13.770;2022-11-14T08:24:57;8.02;;;4.53;;
65751;SDS011;52486;51.098;13.770;2022-11-14T08:27:23;12.88;;;4.82;;
65751;SDS011;52486;51.098;13.770;2022-11-14T08:29:49;6.90;;;4.45;;
65751;SDS011;52486;51.098;13.770;2022-11-14T08:32:16;11.05;;;4.63;;
65751;SDS011;52486;51.098;13.770;2022-11-14T08:34:42;10.02;;;5.10;;
65751;SDS011;52486;51.098;13.770;2022-11-14T08:37:08;9.45;;;4.25;;
65751;SDS011;52486;51.098;13.770;2022-11-14T08:39:33;9.23;;;5.00;;
65751;SDS011;52486;51.098;13.770;2022-11-14T08:41:59;11.93;;;4.32;;
65751;SDS011;52486;51.098;13.770;2022-11-14T08:44:25;9.10;;;4.45;;
65751;SDS011;52486;51.098;13.770;2022-11-14T08:46:50;13.27;;;4.85;;
65751;SDS011;52486;51.098;13.770;2022-11-14T08:49:16;9.30;;;4.75;;
65751;SDS011;52486;51.098;13.770;2022-11-14T08:51:42;7.38;;;4.90;;
65751;SDS011;52486;51.098;13.770;2022-11-14T08:54:07;8.32;;;4.70;;
65751;SDS011;52486;51.098;13.770;2022-11-14T08:56:33;9.43;;;4.78;;
65751;SDS011;52486;51.098;13.770;2022-11-14T08:59:01;10.60;;;5.18;;
65751;SDS011;52486;51.098;13.770;2022-11-14T09:01:27;14.68;;;4.63;;
65751;SDS011;52486;51.098;13.770;2022-11-14T09:03:53;7.97;;;4.90;;
65751;SDS011;52486;51.098;13.770;2022-11-14T09:06:18;10.02;;;4.82;;
65751;SDS011;52486;51.098;13.770;2022-11-14T09:08:44;10.23;;;4.68;;
65751;SDS011;52486;51.098;13.770;2022-11-14T09:11:10;9.35;;;5.13;;
65751;SDS011;52486;51.098;13.770;2022-11-14T09:13:35;10.25;;;4.95;;
65751;SDS011;52486;51.098;13.770;2022-11-14T09:16:01;15.88;;;5.43;;
65751;SDS011;52486;51.098;13.770;2022-11-14T09:18:28;13.95;;;5.00;;
65751;SDS011;52486;51.098;13.770;2022-11-14T09:20:58;7.45;;;4.60;;
65751;SDS011;52486;51.098;13.770;2022-11-14T09:23:28;16.58;;;5.22;;
65751;SDS011;52486;51.098;13.770;2022-11-14T09:25:54;12.07;;;4.82;;
65751;SDS011;52486;51.098;13.770;2022-11-14T09:28:21;11.32;;;5.20;;
65751;SDS011;52486;51.098;13.770;2022-11-14T09:30:50;7.35;;;4.53;;
65751;SDS011;52486;51.098;13.770;2022-11-14T09:33:15;9.25;;;4.88;;
65751;SDS011;52486;51.098;13.770;2022-11-14T09:35:41;7.05;;;4.40;;
65751;SDS011;52486;51.098;13.770;2022-11-14T09:38:08;5.90;;;4.40;;
65751;SDS011;52486;51.098;13.770;2022-11-14T09:40:41;9.35;;;4.63;;
65751;SDS011;52486;51.098;13.770;2022-11-14T09:45:55;7.97;;;4.65;;
65751;SDS011;52486;51.098;13.770;2022-11-14T09:48:22;8.68;;;4.10;;
65751;SDS011;52486;51.098;13.770;2022-11-14T09:51:05;6.85;;;4.18;;
65751;SDS011;52486;51.098;13.770;2022-11-14T09:53:41;11.48;;;4.50;;
65751;SDS011;52486;51.098;13.770;2022-11-14T09:56:31;5.57;;;3.78;;
65751;SDS011;52486;51.098;13.770;2022-11-14T09:58:58;7.85;;;4.20;;
65751;SDS011;52486;51.098;13.770;2022-11-14T10:01:28;12.93;;;4.75;;
65751;SDS011;52486;51.098;13.770;2022-11-14T10:04:13;10.25;;;3.58;;
65751;SDS011;52486;51.098;13.770;2022-11-14T10:07:25;4.75;;;3.80;;
65751;SDS011;52486;51.098;13.770;2022-11-14T10:32:24;6.03;;;3.67;;
65751;SDS011;52486;51.098;13.770;2022-11-14T10:35:10;7.65;;;3.72;;
65751;SDS011;52486;51.098;13.770;2022-11-14T10:37:56;7.18;;;3.80;;
65751;SDS011;52486;51.098;13.770;2022-11-14T10:43:20;8.77;;;3.83;;
65751;SDS011;52486;51.098;13.770;2022-11-14T10:48:53;5.50;;;3.80;;
65751;SDS011;52486;51.098;13.770;2022-11-14T10:54:20;4.95;;;3.80;;
65751;SDS011;52486;51.098;13.770;2022-11-14T10:56:52;7.63;;;3.42;;
65751;SDS011;52486;51.098;13.770;2022-11-14T10:59:19;7.18;;;3.67;;
65751;SDS011;52486;51.098;13.770;2022-11-14T11:04:24;7.55;;;3.50;;
65751;SDS011;52486;51.098;13.770;2022-11-14T11:06:53;13.55;;;5.00;;
65751;SDS011;52486;51.098;13.770;2022-11-14T11:10:00;7.25;;;3.47;;
65751;SDS011;52486;51.098;13.770;2022-11-14T11:12:45;9.13;;;3.80;;
65751;SDS011;52486;51.098;13.770;2022-11-14T11:15:23;5.18;;;3.70;;
65751;SDS011;52486;51.098;13.770;2022-11-14T11:23:00;5.75;;;3.80;;
65751;SDS011;52486;51.098;13.770;2022-11-14T11:25:29;9.73;;;3.95;;
65751;SDS011;52486;51.098;13.770;2022-11-14T11:30:31;4.50;;;3.42;;
65751;SDS011;52486;51.098;13.770;2022-11-14T11:33:13;9.23;;;4.03;;
65751;SDS011;52486;51.098;13.770;2022-11-14T11:35:45;5.20;;;3.40;;
65751;SDS011;52486;51.098;13.770;2022-11-14T11:38:18;5.72;;;3.75;;
65751;SDS011;52486;51.098;13.770;2022-11-14T11:40:45;5.30;;;3.30;;
65751;SDS011;52486;51.098;13.770;2022-11-14T11:45:55;6.20;;;3.28;;
65751;SDS011;52486;51.098;13.770;2022-11-14T11:48:26;4.70;;;3.10;;
65751;SDS011;52486;51.098;13.770;2022-11-14T11:51:01;12.65;;;3.65;;
65751;SDS011;52486;51.098;13.770;2022-11-14T11:53:35;3.55;;;3.17;;
65751;SDS011;52486;51.098;13.770;2022-11-14T11:56:06;5.25;;;3.53;;
65751;SDS011;52486;51.098;13.770;2022-11-14T11:58:38;6.50;;;3.38;;
65751;SDS011;52486;51.098;13.770;2022-11-14T12:01:15;4.90;;;3.53;;
65751;SDS011;52486;51.098;13.770;2022-11-14T12:03:51;7.22;;;3.53;;
65751;SDS011;52486;51.098;13.770;2022-11-14T12:06:18;5.57;;;3.15;;
65751;SDS011;52486;51.098;13.770;2022-11-14T12:11:45;5.30;;;3.47;;
65751;SDS011;52486;51.098;13.770;2022-11-14T12:14:24;4.63;;;3.00;;
65751;SDS011;52486;51.098;13.770;2022-11-14T12:22:42;6.80;;;3.20;;
65751;SDS011;52486;51.098;13.770;2022-11-14T12:28:20;3.47;;;3.08;;
65751;SDS011;52486;51.098;13.770;2022-11-14T12:31:24;10.23;;;3.83;;
65751;SDS011;52486;51.098;13.770;2022-11-14T12:34:36;10.40;;;3.10;;
65751;SDS011;52486;51.098;13.770;2022-11-14T12:36:51;9.20;;;4.22;;
65751;SDS011;52486;51.098;13.770;2022-11-14T12:39:24;7.47;;;3.40;;
65751;SDS011;52486;51.098;13.770;2022-11-14T12:42:10;5.18;;;3.60;;
65751;SDS011;52486;51.098;13.770;2022-11-14T12:44:42;7.05;;;3.17;;
65751;SDS011;52486;51.098;13.770;2022-11-14T13:06:10;8.15;;;5.35;;
65751;SDS011;52486;51.098;13.770;2022-11-14T13:14:18;7.88;;;6.90;;
65751;SDS011;52486;51.098;13.770;2022-11-14T13:19:59;8.88;;;6.45;;
65751;SDS011;52486;51.098;13.770;2022-11-14T13:22:45;7.68;;;6.10;;
65751;SDS011;52486;51.098;13.770;2022-11-14T13:27:38;6.88;;;5.80;;
65751;SDS011;52486;51.098;13.770;2022-11-14T13:30:05;9.00;;;6.05;;
65751;SDS011;52486;51.098;13.770;2022-11-14T13:35:19;5.32;;;4.78;;
65751;SDS011;52486;51.098;13.770;2022-11-14T13:46:05;8.73;;;5.00;;
65751;SDS011;52486;51.098;13.770;2022-11-14T13:51:23;6.95;;;5.03;;
65751;SDS011;52486;51.098;13.770;2022-11-14T13:53:50;10.05;;;5.32;;
65751;SDS011;52486;51.098;13.770;2022-11-14T14:05:00;12.60;;;5.40;;
65751;SDS011;52486;51.098;13.770;2022-11-14T14:29:52;7.03;;;5.00;;
65751;SDS011;52486;51.098;13.770;2022-11-14T14:32:35;16.38;;;6.63;;
65751;SDS011;52486;51.098;13.770;2022-11-14T14:37:54;9.38;;;5.53;;
65751;SDS011;52486;51.098;13.770;2022-11-14T14:42:51;11.82;;;4.88;;
65751;SDS011;52486;51.098;13.770;2022-11-14T14:45:18;9.13;;;5.65;;
65751;SDS011;52486;51.098;13.770;2022-11-14T14:47:47;8.35;;;5.18;;
65751;SDS011;52486;51.098;13.770;2022-11-14T14:50:34;9.75;;;4.85;;
65751;SDS011;52486;51.098;13.770;2022-11-14T14:53:03;11.27;;;5.38;;
65751;SDS011;52486;51.098;13.770;2022-11-14T14:55:31;8.13;;;5.05;;
65751;SDS011;52486;51.098;13.770;2022-11-14T15:00:47;11.82;;;5.07;;
65751;SDS011;52486;51.098;13.770;2022-11-14T15:03:18;14.55;;;5.63;;
65751;SDS011;52486;51.098;13.770;2022-11-14T15:05:44;9.70;;;4.68;;
65751;SDS011;52486;51.098;13.770;2022-11-14T15:08:11;9.70;;;5.28;;
65751;SDS011;52486;51.098;13.770;2022-11-14T15:10:39;14.30;;;5.53;;
65751;SDS011;52486;51.098;13.770;2022-11-14T15:13:06;11.63;;;4.78;;
65751;SDS011;52486;51.098;13.770;2022-11-14T15:15:35;22.00;;;5.20;;
65751;SDS011;52486;51.098;13.770;2022-11-14T15:18:04;10.93;;;4.75;;
65751;SDS011;52486;51.098;13.770;2022-11-14T15:20:32;8.57;;;4.73;;
65751;SDS011;52486;51.098;13.770;2022-11-14T15:23:15;10.90;;;5.20;;
65751;SDS011;52486;51.098;13.770;2022-11-14T15:25:43;8.18;;;4.70;;
65751;SDS011;52486;51.098;13.770;2022-11-14T15:28:16;9.73;;;4.65;;
65751;SDS011;52486;51.098;13.770;2022-11-14T15:30:57;11.52;;;4.97;;
65751;SDS011;52486;51.098;13.770;2022-11-14T15:36:03;9.93;;;4.70;;
65751;SDS011;52486;51.098;13.770;2022-11-14T15:41:23;9.63;;;4.97;;
65751;SDS011;52486;51.098;13.770;2022-11-14T15:43:52;8.77;;;4.43;;
65751;SDS011;52486;51.098;13.770;2022-11-14T15:51:46;9.45;;;4.45;;
65751;SDS011;52486;51.098;13.770;2022-11-14T15:54:22;5.10;;;4.57;;
65751;SDS011;52486;51.098;13.770;2022-11-14T15:56:48;10.45;;;4.70;;
65751;SDS011;52486;51.098;13.770;2022-11-14T15:59:13;9.07;;;4.70;;
65751;SDS011;52486;51.098;13.770;2022-11-14T16:01:49;8.10;;;4.80;;
65751;SDS011;52486;51.098;13.770;2022-11-14T16:04:20;11.98;;;4.40;;
65751;SDS011;52486;51.098;13.770;2022-11-14T16:06:53;8.63;;;4.43;;
65751;SDS011;52486;51.098;13.770;2022-11-14T16:09:19;6.82;;;4.15;;
65751;SDS011;52486;51.098;13.770;2022-11-14T16:11:47;8.73;;;4.45;;
65751;SDS011;52486;51.098;13.770;2022-11-14T16:14:12;7.40;;;3.88;;
65751;SDS011;52486;51.098;13.770;2022-11-14T16:16:39;6.32;;;4.05;;
65751;SDS011;52486;51.098;13.770;2022-11-14T16:19:05;7.38;;;4.15;;
65751;SDS011;52486;51.098;13.770;2022-11-14T16:21:31;7.15;;;4.30;;
65751;SDS011;52486;51.098;13.770;2022-11-14T16:23:58;9.05;;;4.20;;
65751;SDS011;52486;51.098;13.770;2022-11-14T16:26:23;7.38;;;4.63;;
65751;SDS011;52486;51.098;13.770;2022-11-14T16:29:12;6.28;;;4.82;;
65751;SDS011;52486;51.098;13.770;2022-11-14T16:31:38;11.48;;;4.32;;
65751;SDS011;52486;51.098;13.770;2022-11-14T16:34:04;6.50;;;4.15;;
65751;SDS011;52486;51.098;13.770;2022-11-14T16:36:30;6.00;;;4.53;;
65751;SDS011;52486;51.098;13.770;2022-11-14T16:39:00;8.25;;;4.22;;
65751;SDS011;52486;51.098;13.770;2022-11-14T16:41:33;7.68;;;4.25;;
65751;SDS011;52486;51.098;13.770;2022-11-14T16:43:59;4.38;;;3.97;;
65751;SDS011;52486;51.098;13.770;2022-11-14T16:46:24;4.60;;;4.15;;
65751;SDS011;52486;51.098;13.770;2022-11-14T16:48:50;5.22;;;3.50;;
65751;SDS011;52486;51.098;13.770;2022-11-14T16:51:16;7.90;;;4.35;;
65751;SDS011;52486;51.098;13.770;2022-11-14T16:53:41;6.43;;;3.97;;
65751;SDS011;52486;51.098;13.770;2022-11-14T16:56:09;4.80;;;4.25;;
65751;SDS011;52486;51.098;13.770;2022-11-14T16:58:36;5.07;;;4.03;;
65751;SDS011;52486;51.098;13.770;2022-11-14T17:01:05;6.55;;;3.75;;
65751;SDS011;52486;51.098;13.770;2022-11-14T17:03:32;5.47;;;3.63;;
65751;SDS011;52486;51.098;13.770;2022-11-14T17:05:58;5.38;;;3.90;;
65751;SDS011;52486;51.098;13.770;2022-11-14T17:08:24;6.72;;;3.75;;
65751;SDS011;52486;51.098;13.770;2022-11-14T17:10:50;5.30;;;3.92;;
65751;SDS011;52486;51.098;13.770;2022-11-14T17:13:16;5.38;;;4.32;;
65751;SDS011;52486;51.098;13.770;2022-11-14T17:15:42;6.28;;;4.30;;
65751;SDS011;52486;51.098;13.770;2022-11-14T17:18:08;5.32;;;3.92;;
65751;SDS011;52486;51.098;13.770;2022-11-14T17:20:37;7.13;;;3.50;;
65751;SDS011;52486;51.098;13.770;2022-11-14T17:23:03;5.32;;;3.72;;
65751;SDS011;52486;51.098;13.770;2022-11-14T17:25:29;6.55;;;3.58;;
65751;SDS011;52486;51.098;13.770;2022-11-14T17:27:55;4.40;;;3.75;;
65751;SDS011;52486;51.098;13.770;2022-11-14T17:30:21;4.57;;;3.92;;
65751;SDS011;52486;51.098;13.770;2022-11-14T17:32:47;4.10;;;3.70;;
65751;SDS011;52486;51.098;13.770;2022-11-14T17:35:14;8.30;;;3.78;;
65751;SDS011;52486;51.098;13.770;2022-11-14T17:37:40;4.95;;;3.58;;
65751;SDS011;52486;51.098;13.770;2022-11-14T17:40:06;4.30;;;3.53;;
65751;SDS011;52486;51.098;13.770;2022-11-14T17:42:32;5.47;;;3.38;;
65751;SDS011;52486;51.098;13.770;2022-11-14T17:44:58;5.15;;;3.53;;
65751;SDS011;52486;51.098;13.770;2022-11-14T17:47:26;4.32;;;3.83;;
65751;SDS011;52486;51.098;13.770;2022-11-14T17:49:51;4.43;;;3.60;;
65751;SDS011;52486;51.098;13.770;2022-11-14T17:52:18;4.95;;;3.67;;
65751;SDS011;52486;51.098;13.770;2022-11-14T17:54:43;3.70;;;3.40;;
65751;SDS011;52486;51.098;13.770;2022-11-14T17:57:09;6.57;;;3.58;;
65751;SDS011;52486;51.098;13.770;2022-11-14T17:59:37;4.95;;;3.50;;
65751;SDS011;52486;51.098;13.770;2022-11-14T18:02:05;5.47;;;3.83;;
65751;SDS011;52486;51.098;13.770;2022-11-14T18:04:31;5.30;;;3.50;;
65751;SDS011;52486;51.098;13.770;2022-11-14T18:06:57;4.68;;;3.58;;
65751;SDS011;52486;51.098;13.770;2022-11-14T18:09:22;4.50;;;3.25;;
65751;SDS011;52486;51.098;13.770;2022-11-14T18:11:48;4.60;;;3.65;;
65751;SDS011;52486;51.098;13.770;2022-11-14T18:14:14;4.18;;;3.45;;
65751;SDS011;52486;51.098;13.770;2022-11-14T18:16:40;5.80;;;3.75;;
65751;SDS011;52486;51.098;13.770;2022-11-14T18:19:06;4.35;;;3.45;;
65751;SDS011;52486;51.098;13.770;2022-11-14T18:21:32;5.00;;;3.60;;
65751;SDS011;52486;51.098;13.770;2022-11-14T18:23:58;4.55;;;3.65;;
65751;SDS011;52486;51.098;13.770;2022-11-14T18:26:25;4.93;;;3.60;;
65751;SDS011;52486;51.098;13.770;2022-11-14T18:28:59;4.63;;;3.40;;
65751;SDS011;52486;51.098;13.770;2022-11-14T18:31:29;4.25;;;3.45;;
65751;SDS011;52486;51.098;13.770;2022-11-14T18:33:55;3.75;;;3.35;;
65751;SDS011;52486;51.098;13.770;2022-11-14T18:36:21;5.97;;;3.63;;
65751;SDS011;52486;51.098;13.770;2022-11-14T18:38:47;4.53;;;3.90;;
65751;SDS011;52486;51.098;13.770;2022-11-14T18:41:16;4.72;;;3.40;;
65751;SDS011;52486;51.098;13.770;2022-11-14T18:43:43;5.57;;;3.42;;
65751;SDS011;52486;51.098;13.770;2022-11-14T18:46:10;3.55;;;3.25;;
65751;SDS011;52486;51.098;13.770;2022-11-14T18:48:37;3.50;;;3.20;;
65751;SDS011;52486;51.098;13.770;2022-11-14T18:51:04;4.88;;;3.30;;
65751;SDS011;52486;51.098;13.770;2022-11-14T18:53:32;3.65;;;2.90;;
65751;SDS011;52486;51.098;13.770;2022-11-14T18:56:01;5.38;;;3.22;;
65751;SDS011;52486;51.098;13.770;2022-11-14T18:58:27;4.68;;;3.60;;
65751;SDS011;52486;51.098;13.770;2022-11-14T19:00:53;3.85;;;3.20;;
65751;SDS011;52486;51.098;13.770;2022-11-14T19:03:19;4.07;;;3.25;;
65751;SDS011;52486;51.098;13.770;2022-11-14T19:05:45;5.30;;;3.60;;
65751;SDS011;52486;51.098;13.770;2022-11-14T19:08:11;6.00;;;3.47;;
65751;SDS011;52486;51.098;13.770;2022-11-14T19:10:37;12.10;;;5.65;;
65751;SDS011;52486;51.098;13.770;2022-11-14T19:13:03;3.70;;;3.17;;
65751;SDS011;52486;51.098;13.770;2022-11-14T19:15:29;3.83;;;3.10;;
65751;SDS011;52486;51.098;13.770;2022-11-14T19:17:56;3.47;;;3.17;;
65751;SDS011;52486;51.098;13.770;2022-11-14T19:20:22;3.83;;;2.97;;
65751;SDS011;52486;51.098;13.770;2022-11-14T19:22:48;4.05;;;3.10;;
65751;SDS011;52486;51.098;13.770;2022-11-14T19:25:14;3.33;;;3.03;;
65751;SDS011;52486;51.098;13.770;2022-11-14T19:27:40;3.50;;;3.20;;
65751;SDS011;52486;51.098;13.770;2022-11-14T19:30:06;3.38;;;3.08;;
65751;SDS011;52486;51.098;13.770;2022-11-14T19:32:32;7.30;;;3.38;;
65751;SDS011;52486;51.098;13.770;2022-11-14T19:34:58;3.38;;;3.08;;
65751;SDS011;52486;51.098;13.770;2022-11-14T19:37:24;5.90;;;3.45;;
65751;SDS011;52486;51.098;13.770;2022-11-14T19:39:50;3.72;;;3.38;;
65751;SDS011;52486;51.098;13.770;2022-11-14T19:42:19;3.47;;;3.03;;
65751;SDS011;52486;51.098;13.770;2022-11-14T19:44:46;4.28;;;3.60;;
65751;SDS011;52486;51.098;13.770;2022-11-14T19:47:12;5.00;;;3.53;;
65751;SDS011;52486;51.098;13.770;2022-11-14T19:49:38;3.53;;;3.13;;
65751;SDS011;52486;51.098;13.770;2022-11-14T19:52:04;4.07;;;3.47;;
65751;SDS011;52486;51.098;13.770;2022-11-14T19:54:30;4.00;;;3.40;;
65751;SDS011;52486;51.098;13.770;2022-11-14T19:56:56;4.00;;;3.30;;
65751;SDS011;52486;51.098;13.770;2022-11-14T19:59:23;3.47;;;3.17;;
65751;SDS011;52486;51.098;13.770;2022-11-14T20:01:51;3.47;;;3.17;;
65751;SDS011;52486;51.098;13.770;2022-11-14T20:04:19;4.22;;;2.95;;
65751;SDS011;52486;51.098;13.770;2022-11-14T20:06:45;3.58;;;3.00;;
65751;SDS011;52486;51.098;13.770;2022-11-14T20:09:11;3.67;;;2.95;;
65751;SDS011;52486;51.098;13.770;2022-11-14T20:11:37;3.83;;;3.45;;
65751;SDS011;52486;51.098;13.770;2022-11-14T20:14:04;4.10;;;3.45;;
65751;SDS011;52486;51.098;13.770;2022-11-14T20:16:33;5.47;;;3.20;;
65751;SDS011;52486;51.098;13.770;2022-11-14T20:19:00;3.45;;;3.00;;
65751;SDS011;52486;51.098;13.770;2022-11-14T20:21:27;3.08;;;2.78;;
65751;SDS011;52486;51.098;13.770;2022-11-14T20:23:53;3.53;;;3.22;;
65751;SDS011;52486;51.098;13.770;2022-11-14T20:26:20;3.42;;;2.88;;
65751;SDS011;52486;51.098;13.770;2022-11-14T20:28:46;3.58;;;3.03;;
65751;SDS011;52486;51.098;13.770;2022-11-14T20:31:15;4.55;;;3.10;;
65751;SDS011;52486;51.098;13.770;2022-11-14T20:33:42;3.38;;;3.08;;
65751;SDS011;52486;51.098;13.770;2022-11-14T20:36:09;3.67;;;3.10;;
65751;SDS011;52486;51.098;13.770;2022-11-14T20:38:36;4.72;;;3.40;;
65751;SDS011;52486;51.098;13.770;2022-11-14T20:41:02;4.75;;;3.42;;
65751;SDS011;52486;51.098;13.770;2022-11-14T20:43:28;4.25;;;3.22;;
65751;SDS011;52486;51.098;13.770;2022-11-14T20:45:55;3.20;;;2.90;;
65751;SDS011;52486;51.098;13.770;2022-11-14T20:48:22;3.53;;;3.22;;
65751;SDS011;52486;51.098;13.770;2022-11-14T20:50:48;4.65;;;3.08;;
65751;SDS011;52486;51.098;13.770;2022-11-14T20:53:14;3.45;;;3.00;;
65751;SDS011;52486;51.098;13.770;2022-11-14T20:55:40;3.22;;;2.78;;
65751;SDS011;52486;51.098;13.770;2022-11-14T20:58:06;7.18;;;2.90;;
65751;SDS011;52486;51.098;13.770;2022-11-14T21:00:32;3.25;;;2.88;;
65751;SDS011;52486;51.098;13.770;2022-11-14T21:02:59;4.15;;;3.38;;
65751;SDS011;52486;51.098;13.770;2022-11-14T21:05:25;4.25;;;3.38;;
65751;SDS011;52486;51.098;13.770;2022-11-14T21:07:51;3.72;;;3.10;;
65751;SDS011;52486;51.098;13.770;2022-11-14T21:10:17;4.40;;;3.05;;
65751;SDS011;52486;51.098;13.770;2022-11-14T21:13:05;3.63;;;3.15;;
65751;SDS011;52486;51.098;13.770;2022-11-14T21:15:50;3.42;;;3.08;;
65751;SDS011;52486;51.098;13.770;2022-11-14T21:18:16;3.30;;;3.00;;
65751;SDS011;52486;51.098;13.770;2022-11-14T21:20:42;3.13;;;2.83;;
65751;SDS011;52486;51.098;13.770;2022-11-14T21:23:08;3.40;;;3.10;;
65751;SDS011;52486;51.098;13.770;2022-11-14T21:25:34;3.53;;;3.22;;
65751;SDS011;52486;51.098;13.770;2022-11-14T21:28:00;3.78;;;3.30;;
65751;SDS011;52486;51.098;13.770;2022-11-14T21:30:29;2.90;;;2.70;;
65751;SDS011;52486;51.098;13.770;2022-11-14T21:32:55;4.53;;;2.80;;
65751;SDS011;52486;51.098;13.770;2022-11-14T21:35:21;3.72;;;2.83;;
65751;SDS011;52486;51.098;13.770;2022-11-14T21:37:47;3.10;;;2.80;;
65751;SDS011;52486;51.098;13.770;2022-11-14T21:40:13;2.88;;;2.60;;
65751;SDS011;52486;51.098;13.770;2022-11-14T21:42:40;3.22;;;2.95;;
65751;SDS011;52486;51.098;13.770;2022-11-14T21:45:07;3.20;;;2.85;;
65751;SDS011;52486;51.098;13.770;2022-11-14T21:47:33;3.33;;;3.03;;
65751;SDS011;52486;51.098;13.770;2022-11-14T21:49:59;3.58;;;3.28;;
65751;SDS011;52486;51.098;13.770;2022-11-14T21:52:25;3.17;;;2.80;;
65751;SDS011;52486;51.098;13.770;2022-11-14T21:54:51;5.47;;;3.05;;
65751;SDS011;52486;51.098;13.770;2022-11-14T21:57:17;3.40;;;3.08;;
65751;SDS011;52486;51.098;13.770;2022-11-14T21:59:43;3.30;;;3.00;;
65751;SDS011;52486;51.098;13.770;2022-11-14T22:02:10;2.88;;;2.67;;
65751;SDS011;52486;51.098;13.770;2022-11-14T22:04:55;2.83;;;2.60;;
65751;SDS011;52486;51.098;13.770;2022-11-14T22:07:21;3.20;;;2.80;;
65751;SDS011;52486;51.098;13.770;2022-11-14T22:09:47;3.53;;;2.85;;
65751;SDS011;52486;51.098;13.770;2022-11-14T22:12:12;3.55;;;2.75;;
65751;SDS011;52486;51.098;13.770;2022-11-14T22:14:38;3.20;;;2.80;;
65751;SDS011;52486;51.098;13.770;2022-11-14T22:17:04;3.03;;;2.83;;
65751;SDS011;52486;51.098;13.770;2022-11-14T22:19:29;3.67;;;2.75;;
65751;SDS011;52486;51.098;13.770;2022-11-14T22:21:55;2.90;;;2.70;;
65751;SDS011;52486;51.098;13.770;2022-11-14T22:24:20;3.33;;;3.03;;
65751;SDS011;52486;51.098;13.770;2022-11-14T22:26:46;3.58;;;3.17;;
65751;SDS011;52486;51.098;13.770;2022-11-14T22:29:12;3.30;;;3.00;;
65751;SDS011;52486;51.098;13.770;2022-11-14T22:31:38;3.55;;;3.25;;
65751;SDS011;52486;51.098;13.770;2022-11-14T22:34:03;3.90;;;2.50;;
65751;SDS011;52486;51.098;13.770;2022-11-14T22:36:29;3.30;;;3.00;;
65751;SDS011;52486;51.098;13.770;2022-11-14T22:38:55;3.25;;;2.95;;
65751;SDS011;52486;51.098;13.770;2022-11-14T22:41:25;2.88;;;2.67;;
65751;SDS011;52486;51.098;13.770;2022-11-14T22:43:53;3.35;;;2.80;;
65751;SDS011;52486;51.098;13.770;2022-11-14T22:46:19;3.50;;;2.70;;
65751;SDS011;52486;51.098;13.770;2022-11-14T22:48:45;2.92;;;2.70;;
65751;SDS011;52486;51.098;13.770;2022-11-14T22:51:14;3.45;;;3.03;;
65751;SDS011;52486;51.098;13.770;2022-11-14T22:53:43;3.13;;;2.83;;
65751;SDS011;52486;51.098;13.770;2022-11-14T22:56:12;2.92;;;2.63;;
65751;SDS011;52486;51.098;13.770;2022-11-14T22:58:39;2.70;;;2.50;;
65751;SDS011;52486;51.098;13.770;2022-11-14T23:01:09;4.32;;;2.45;;
65751;SDS011;52486;51.098;13.770;2022-11-14T23:03:35;3.03;;;2.70;;
65751;SDS011;52486;51.098;13.770;2022-11-14T23:06:07;2.72;;;2.53;;
65751;SDS011;52486;51.098;13.770;2022-11-14T23:08:34;3.40;;;2.97;;
65751;SDS011;52486;51.098;13.770;2022-11-14T23:11:10;3.60;;;2.80;;
65751;SDS011;52486;51.098;13.770;2022-11-14T23:13:44;3.28;;;2.92;;
65751;SDS011;52486;51.098;13.770;2022-11-14T23:16:12;3.22;;;2.92;;
65751;SDS011;52486;51.098;13.770;2022-11-14T23:18:40;3.13;;;2.78;;
65751;SDS011;52486;51.098;13.770;2022-11-14T23:21:07;3.10;;;2.80;;
65751;SDS011;52486;51.098;13.770;2022-11-14T23:23:34;2.70;;;2.50;;
65751;SDS011;52486;51.098;13.770;2022-11-14T23:26:04;3.17;;;2.97;;
65751;SDS011;52486;51.098;13.770;2022-11-14T23:28:31;3.00;;;2.70;;
65751;SDS011;52486;51.098;13.770;2022-11-14T23:30:57;2.90;;;2.70;;
65751;SDS011;52486;51.098;13.770;2022-11-14T23:33:23;4.10;;;3.00;;
65751;SDS011;52486;51.098;13.770;2022-11-14T23:35:49;3.30;;;2.67;;
65751;SDS011;52486;51.098;13.770;2022-11-14T23:38:15;2.60;;;2.40;;
65751;SDS011;52486;51.098;13.770;2022-11-14T23:40:40;3.33;;;2.55;;
65751;SDS011;52486;51.098;13.770;2022-11-14T23:43:07;3.03;;;2.72;;
65751;SDS011;52486;51.098;13.770;2022-11-14T23:45:33;3.80;;;2.70;;
65751;SDS011;52486;51.098;13.770;2022-11-14T23:47:58;4.80;;;3.10;;
65751;SDS011;52486;51.098;13.770;2022-11-14T23:50:24;3.42;;;3.00;;
65751;SDS011;52486;51.098;13.770;2022-11-14T23:52:49;4.18;;;2.60;;